sensor_id;sensor_type;location;lat;lon;timestamp;temperature;humidity
66936;DHT22;53847;51.984;5.896;2022-08-16T00:01:57;24.00;60.20
66936;DHT22;53847;51.984;5.896;2022-08-16T00:04:24;24.20;60.30
66936;DHT22;53847;51.984;5.896;2022-08-16T00:06:50;24.30;60.30
66936;DHT22;53847;51.984;5.896;2022-08-16T00:09:16;24.40;60.50
66936;DHT22;53847;51.984;5.896;2022-08-16T00:11:44;24.00;60.30
66936;DHT22;53847;51.984;5.896;2022-08-16T00:14:13;23.90;60.20
66936;DHT22;53847;51.984;5.896;2022-08-16T00:16:40;23.90;60.40
66936;DHT22;53847;51.984;5.896;2022-08-16T00:19:06;23.50;60.20
66936;DHT22;53847;51.984;5.896;2022-08-16T00:21:33;23.80;60.40
66936;DHT22;53847;51.984;5.896;2022-08-16T00:24:00;23.90;60.60
66936;DHT22;53847;51.984;5.896;2022-08-16T00:26:27;24.00;60.90
66936;DHT22;53847;51.984;5.896;2022-08-16T00:28:53;23.50;60.90
66936;DHT22;53847;51.984;5.896;2022-08-16T00:31:19;23.60;61.20
66936;DHT22;53847;51.984;5.896;2022-08-16T00:33:46;23.60;61.30
66936;DHT22;53847;51.984;5.896;2022-08-16T00:36:12;23.90;61.50
66936;DHT22;53847;51.984;5.896;2022-08-16T00:38:38;23.60;61.50
66936;DHT22;53847;51.984;5.896;2022-08-16T00:41:05;23.60;61.60
66936;DHT22;53847;51.984;5.896;2022-08-16T00:43:33;24.00;62.00
66936;DHT22;53847;51.984;5.896;2022-08-16T00:46:14;23.80;62.00
66936;DHT22;53847;51.984;5.896;2022-08-16T00:48:44;23.40;61.60
66936;DHT22;53847;51.984;5.896;2022-08-16T00:51:13;23.30;61.70
66936;DHT22;53847;51.984;5.896;2022-08-16T00:53:39;23.40;61.80
66936;DHT22;53847;51.984;5.896;2022-08-16T00:56:10;23.90;62.10
66936;DHT22;53847;51.984;5.896;2022-08-16T00:58:41;23.40;62.20
66936;DHT22;53847;51.984;5.896;2022-08-16T01:01:09;23.30;62.20
66936;DHT22;53847;51.984;5.896;2022-08-16T01:03:37;23.30;62.40
66936;DHT22;53847;51.984;5.896;2022-08-16T01:06:04;23.40;62.60
66936;DHT22;53847;51.984;5.896;2022-08-16T01:08:31;23.00;62.40
66936;DHT22;53847;51.984;5.896;2022-08-16T01:11:03;23.20;62.40
66936;DHT22;53847;51.984;5.896;2022-08-16T01:13:32;23.30;62.50
66936;DHT22;53847;51.984;5.896;2022-08-16T01:16:02;23.20;62.40
66936;DHT22;53847;51.984;5.896;2022-08-16T01:18:50;23.00;62.40
66936;DHT22;53847;51.984;5.896;2022-08-16T01:26:40;23.20;63.10
66936;DHT22;53847;51.984;5.896;2022-08-16T01:29:11;22.80;62.80
66936;DHT22;53847;51.984;5.896;2022-08-16T01:31:39;22.70;62.70
66936;DHT22;53847;51.984;5.896;2022-08-16T01:34:06;23.10;62.90
66936;DHT22;53847;51.984;5.896;2022-08-16T01:36:34;23.20;62.90
66936;DHT22;53847;51.984;5.896;2022-08-16T01:39:11;23.00;63.00
66936;DHT22;53847;51.984;5.896;2022-08-16T01:41:39;23.00;63.20
66936;DHT22;53847;51.984;5.896;2022-08-16T01:44:05;23.00;63.40
66936;DHT22;53847;51.984;5.896;2022-08-16T01:46:36;22.90;63.50
66936;DHT22;53847;51.984;5.896;2022-08-16T01:51:46;22.70;64.10
66936;DHT22;53847;51.984;5.896;2022-08-16T01:54:17;22.60;64.40
66936;DHT22;53847;51.984;5.896;2022-08-16T01:56:54;22.80;64.80
66936;DHT22;53847;51.984;5.896;2022-08-16T01:59:21;22.70;65.00
66936;DHT22;53847;51.984;5.896;2022-08-16T02:01:49;22.70;64.90
66936;DHT22;53847;51.984;5.896;2022-08-16T02:04:21;22.70;65.10
66936;DHT22;53847;51.984;5.896;2022-08-16T02:06:47;23.00;65.30
66936;DHT22;53847;51.984;5.896;2022-08-16T02:09:20;22.60;65.00
66936;DHT22;53847;51.984;5.896;2022-08-16T02:11:52;22.90;65.20
66936;DHT22;53847;51.984;5.896;2022-08-16T02:14:21;22.70;65.00
66936;DHT22;53847;51.984;5.896;2022-08-16T02:16:49;22.60;65.00
66936;DHT22;53847;51.984;5.896;2022-08-16T02:19:16;22.60;65.40
66936;DHT22;53847;51.984;5.896;2022-08-16T02:21:48;22.50;65.30
66936;DHT22;53847;51.984;5.896;2022-08-16T02:24:14;22.50;65.40
66936;DHT22;53847;51.984;5.896;2022-08-16T02:26:40;22.80;65.50
66936;DHT22;53847;51.984;5.896;2022-08-16T02:29:06;22.40;65.50
66936;DHT22;53847;51.984;5.896;2022-08-16T02:31:33;22.50;65.60
66936;DHT22;53847;51.984;5.896;2022-08-16T02:33:59;22.20;66.10
66936;DHT22;53847;51.984;5.896;2022-08-16T02:36:33;22.40;66.60
66936;DHT22;53847;51.984;5.896;2022-08-16T02:39:01;22.30;66.70
66936;DHT22;53847;51.984;5.896;2022-08-16T02:41:27;21.80;66.90
66936;DHT22;53847;51.984;5.896;2022-08-16T02:43:54;22.20;67.00
66936;DHT22;53847;51.984;5.896;2022-08-16T02:46:20;22.20;66.90
66936;DHT22;53847;51.984;5.896;2022-08-16T02:48:46;21.80;66.60
66936;DHT22;53847;51.984;5.896;2022-08-16T02:51:12;22.20;67.40
66936;DHT22;53847;51.984;5.896;2022-08-16T02:53:43;22.60;67.70
66936;DHT22;53847;51.984;5.896;2022-08-16T02:56:15;22.40;67.80
66936;DHT22;53847;51.984;5.896;2022-08-16T02:58:42;22.30;67.80
66936;DHT22;53847;51.984;5.896;2022-08-16T03:01:09;22.10;67.50
66936;DHT22;53847;51.984;5.896;2022-08-16T03:03:36;22.10;68.20
66936;DHT22;53847;51.984;5.896;2022-08-16T03:06:02;22.10;67.40
66936;DHT22;53847;51.984;5.896;2022-08-16T03:08:28;22.10;67.30
66936;DHT22;53847;51.984;5.896;2022-08-16T03:10:55;22.30;67.80
66936;DHT22;53847;51.984;5.896;2022-08-16T03:13:21;22.10;67.60
66936;DHT22;53847;51.984;5.896;2022-08-16T03:15:47;22.20;67.80
66936;DHT22;53847;51.984;5.896;2022-08-16T03:18:14;22.00;67.90
66936;DHT22;53847;51.984;5.896;2022-08-16T03:20:41;21.60;67.70
66936;DHT22;53847;51.984;5.896;2022-08-16T03:23:08;22.00;67.90
66936;DHT22;53847;51.984;5.896;2022-08-16T03:25:35;21.90;67.90
66936;DHT22;53847;51.984;5.896;2022-08-16T03:28:02;21.80;67.90
66936;DHT22;53847;51.984;5.896;2022-08-16T03:30:31;21.90;68.20
66936;DHT22;53847;51.984;5.896;2022-08-16T03:33:00;21.90;68.10
66936;DHT22;53847;51.984;5.896;2022-08-16T03:35:34;22.00;67.90
66936;DHT22;53847;51.984;5.896;2022-08-16T03:38:16;22.00;68.10
66936;DHT22;53847;51.984;5.896;2022-08-16T03:40:47;22.10;68.10
66936;DHT22;53847;51.984;5.896;2022-08-16T03:43:13;21.80;68.00
66936;DHT22;53847;51.984;5.896;2022-08-16T03:45:40;21.70;68.40
66936;DHT22;53847;51.984;5.896;2022-08-16T03:48:07;21.80;68.40
66936;DHT22;53847;51.984;5.896;2022-08-16T03:50:34;21.80;68.30
66936;DHT22;53847;51.984;5.896;2022-08-16T03:53:01;21.80;68.50
66936;DHT22;53847;51.984;5.896;2022-08-16T03:55:28;21.50;68.60
66936;DHT22;53847;51.984;5.896;2022-08-16T03:57:55;21.70;68.70
66936;DHT22;53847;51.984;5.896;2022-08-16T04:00:26;21.90;69.00
66936;DHT22;53847;51.984;5.896;2022-08-16T04:02:56;21.60;69.00
66936;DHT22;53847;51.984;5.896;2022-08-16T04:05:23;21.60;68.90
66936;DHT22;53847;51.984;5.896;2022-08-16T04:07:49;21.60;68.90
66936;DHT22;53847;51.984;5.896;2022-08-16T04:10:16;21.60;68.90
66936;DHT22;53847;51.984;5.896;2022-08-16T04:12:44;21.60;69.00
66936;DHT22;53847;51.984;5.896;2022-08-16T04:15:12;21.90;69.30
66936;DHT22;53847;51.984;5.896;2022-08-16T04:17:47;21.50;69.20
66936;DHT22;53847;51.984;5.896;2022-08-16T04:20:14;21.40;69.30
66936;DHT22;53847;51.984;5.896;2022-08-16T04:22:41;21.20;69.50
66936;DHT22;53847;51.984;5.896;2022-08-16T04:25:07;21.40;70.30
66936;DHT22;53847;51.984;5.896;2022-08-16T04:27:36;21.30;70.30
66936;DHT22;53847;51.984;5.896;2022-08-16T04:30:06;21.50;70.50
66936;DHT22;53847;51.984;5.896;2022-08-16T04:32:38;21.50;70.60
66936;DHT22;53847;51.984;5.896;2022-08-16T04:35:08;21.60;71.10
66936;DHT22;53847;51.984;5.896;2022-08-16T04:37:37;21.20;70.90
66936;DHT22;53847;51.984;5.896;2022-08-16T04:40:13;21.20;71.10
66936;DHT22;53847;51.984;5.896;2022-08-16T04:42:40;21.30;71.70
66936;DHT22;53847;51.984;5.896;2022-08-16T04:45:08;21.20;72.20
66936;DHT22;53847;51.984;5.896;2022-08-16T04:47:35;21.30;71.80
66936;DHT22;53847;51.984;5.896;2022-08-16T04:50:14;21.10;71.90
66936;DHT22;53847;51.984;5.896;2022-08-16T04:52:57;21.10;72.20
66936;DHT22;53847;51.984;5.896;2022-08-16T04:55:25;21.20;72.10
66936;DHT22;53847;51.984;5.896;2022-08-16T04:57:53;21.10;72.30
66936;DHT22;53847;51.984;5.896;2022-08-16T05:00:28;21.10;72.30
66936;DHT22;53847;51.984;5.896;2022-08-16T05:02:54;21.30;72.40
66936;DHT22;53847;51.984;5.896;2022-08-16T05:05:21;21.10;72.90
66936;DHT22;53847;51.984;5.896;2022-08-16T05:07:48;21.30;73.30
66936;DHT22;53847;51.984;5.896;2022-08-16T05:10:16;21.10;73.50
66936;DHT22;53847;51.984;5.896;2022-08-16T05:12:42;21.30;73.50
66936;DHT22;53847;51.984;5.896;2022-08-16T05:15:09;21.20;73.40
66936;DHT22;53847;51.984;5.896;2022-08-16T05:17:38;21.10;73.70
66936;DHT22;53847;51.984;5.896;2022-08-16T05:20:10;21.40;73.90
66936;DHT22;53847;51.984;5.896;2022-08-16T05:22:39;21.30;74.10
66936;DHT22;53847;51.984;5.896;2022-08-16T05:25:08;20.90;74.20
66936;DHT22;53847;51.984;5.896;2022-08-16T05:27:35;21.00;74.30
66936;DHT22;53847;51.984;5.896;2022-08-16T05:30:04;21.00;74.30
66936;DHT22;53847;51.984;5.896;2022-08-16T05:32:35;20.70;74.10
66936;DHT22;53847;51.984;5.896;2022-08-16T05:35:04;21.00;74.30
66936;DHT22;53847;51.984;5.896;2022-08-16T05:37:30;21.00;74.20
66936;DHT22;53847;51.984;5.896;2022-08-16T05:39:57;21.40;74.60
66936;DHT22;53847;51.984;5.896;2022-08-16T05:42:23;21.00;74.60
66936;DHT22;53847;51.984;5.896;2022-08-16T05:44:49;21.00;74.60
66936;DHT22;53847;51.984;5.896;2022-08-16T05:47:16;21.00;74.50
66936;DHT22;53847;51.984;5.896;2022-08-16T05:49:44;21.20;74.80
66936;DHT22;53847;51.984;5.896;2022-08-16T05:52:12;21.20;74.60
66936;DHT22;53847;51.984;5.896;2022-08-16T05:54:38;21.10;74.50
66936;DHT22;53847;51.984;5.896;2022-08-16T05:57:05;21.50;75.20
66936;DHT22;53847;51.984;5.896;2022-08-16T05:59:32;21.60;76.10
66936;DHT22;53847;51.984;5.896;2022-08-16T06:01:58;21.50;75.90
66936;DHT22;53847;51.984;5.896;2022-08-16T06:04:31;22.40;75.60
66936;DHT22;53847;51.984;5.896;2022-08-16T06:06:57;22.80;75.30
66936;DHT22;53847;51.984;5.896;2022-08-16T06:09:29;23.30;74.10
66936;DHT22;53847;51.984;5.896;2022-08-16T06:11:56;23.60;73.00
66936;DHT22;53847;51.984;5.896;2022-08-16T06:14:22;23.90;72.70
66936;DHT22;53847;51.984;5.896;2022-08-16T06:16:48;24.30;71.80
66936;DHT22;53847;51.984;5.896;2022-08-16T06:19:15;24.50;71.00
66936;DHT22;53847;51.984;5.896;2022-08-16T06:21:51;25.00;69.90
66936;DHT22;53847;51.984;5.896;2022-08-16T06:24:17;25.00;68.20
66936;DHT22;53847;51.984;5.896;2022-08-16T06:26:43;25.70;66.70
66936;DHT22;53847;51.984;5.896;2022-08-16T06:29:09;25.90;66.30
66936;DHT22;53847;51.984;5.896;2022-08-16T06:31:38;26.20;65.40
66936;DHT22;53847;51.984;5.896;2022-08-16T06:34:05;26.40;64.70
66936;DHT22;53847;51.984;5.896;2022-08-16T06:36:34;26.60;63.40
66936;DHT22;53847;51.984;5.896;2022-08-16T06:39:29;26.80;62.10
66936;DHT22;53847;51.984;5.896;2022-08-16T06:42:08;27.10;61.50
66936;DHT22;53847;51.984;5.896;2022-08-16T06:44:57;27.20;60.30
66936;DHT22;53847;51.984;5.896;2022-08-16T06:47:37;27.20;59.50
66936;DHT22;53847;51.984;5.896;2022-08-16T06:50:04;27.40;57.90
66936;DHT22;53847;51.984;5.896;2022-08-16T06:52:38;27.30;58.60
66936;DHT22;53847;51.984;5.896;2022-08-16T06:55:09;27.80;57.70
66936;DHT22;53847;51.984;5.896;2022-08-16T06:57:37;27.50;57.50
66936;DHT22;53847;51.984;5.896;2022-08-16T07:00:06;28.00;56.90
66936;DHT22;53847;51.984;5.896;2022-08-16T07:02:39;28.20;57.00
66936;DHT22;53847;51.984;5.896;2022-08-16T07:05:05;28.10;56.30
66936;DHT22;53847;51.984;5.896;2022-08-16T07:07:33;28.20;56.20
66936;DHT22;53847;51.984;5.896;2022-08-16T07:10:00;28.40;55.70
66936;DHT22;53847;51.984;5.896;2022-08-16T07:12:27;28.50;55.40
66936;DHT22;53847;51.984;5.896;2022-08-16T07:14:53;28.60;54.60
66936;DHT22;53847;51.984;5.896;2022-08-16T07:17:19;28.60;54.70
66936;DHT22;53847;51.984;5.896;2022-08-16T07:19:50;28.80;54.30
66936;DHT22;53847;51.984;5.896;2022-08-16T07:22:16;28.60;53.60
66936;DHT22;53847;51.984;5.896;2022-08-16T07:24:43;29.10;52.70
66936;DHT22;53847;51.984;5.896;2022-08-16T07:27:10;29.20;52.40
66936;DHT22;53847;51.984;5.896;2022-08-16T07:29:38;29.00;52.40
66936;DHT22;53847;51.984;5.896;2022-08-16T07:32:06;28.90;52.10
66936;DHT22;53847;51.984;5.896;2022-08-16T07:34:32;29.10;52.20
66936;DHT22;53847;51.984;5.896;2022-08-16T07:37:02;29.10;51.40
66936;DHT22;53847;51.984;5.896;2022-08-16T07:39:43;29.70;51.20
66936;DHT22;53847;51.984;5.896;2022-08-16T07:42:10;29.50;50.60
66936;DHT22;53847;51.984;5.896;2022-08-16T07:44:38;29.80;50.70
66936;DHT22;53847;51.984;5.896;2022-08-16T07:47:05;29.60;50.60
66936;DHT22;53847;51.984;5.896;2022-08-16T07:49:31;29.90;50.00
66936;DHT22;53847;51.984;5.896;2022-08-16T07:51:57;29.70;49.10
66936;DHT22;53847;51.984;5.896;2022-08-16T07:54:28;29.60;48.70
66936;DHT22;53847;51.984;5.896;2022-08-16T07:56:54;30.00;49.10
66936;DHT22;53847;51.984;5.896;2022-08-16T07:59:21;30.00;49.30
66936;DHT22;53847;51.984;5.896;2022-08-16T08:01:47;29.70;48.70
66936;DHT22;53847;51.984;5.896;2022-08-16T08:04:13;29.60;47.90
66936;DHT22;53847;51.984;5.896;2022-08-16T08:06:42;29.60;48.20
66936;DHT22;53847;51.984;5.896;2022-08-16T08:09:14;29.10;48.00
66936;DHT22;53847;51.984;5.896;2022-08-16T08:11:40;29.40;48.50
66936;DHT22;53847;51.984;5.896;2022-08-16T08:14:08;29.40;48.60
66936;DHT22;53847;51.984;5.896;2022-08-16T08:16:44;29.40;48.60
66936;DHT22;53847;51.984;5.896;2022-08-16T08:19:14;29.30;48.10
66936;DHT22;53847;51.984;5.896;2022-08-16T08:21:43;29.10;47.60
66936;DHT22;53847;51.984;5.896;2022-08-16T08:24:11;29.00;47.60
66936;DHT22;53847;51.984;5.896;2022-08-16T08:26:39;28.60;47.70
66936;DHT22;53847;51.984;5.896;2022-08-16T08:29:06;28.60;48.30
66936;DHT22;53847;51.984;5.896;2022-08-16T08:31:32;28.40;48.70
66936;DHT22;53847;51.984;5.896;2022-08-16T08:33:59;27.80;48.80
66936;DHT22;53847;51.984;5.896;2022-08-16T08:36:28;27.60;49.00
66936;DHT22;53847;51.984;5.896;2022-08-16T08:38:56;27.50;49.30
66936;DHT22;53847;51.984;5.896;2022-08-16T08:41:23;27.30;49.70
66936;DHT22;53847;51.984;5.896;2022-08-16T08:43:52;27.10;50.00
66936;DHT22;53847;51.984;5.896;2022-08-16T08:46:20;26.80;50.30
66936;DHT22;53847;51.984;5.896;2022-08-16T08:48:48;26.70;50.60
66936;DHT22;53847;51.984;5.896;2022-08-16T08:51:15;26.90;51.30
66936;DHT22;53847;51.984;5.896;2022-08-16T08:53:53;26.80;51.40
66936;DHT22;53847;51.984;5.896;2022-08-16T08:56:19;27.10;52.00
66936;DHT22;53847;51.984;5.896;2022-08-16T08:58:47;26.60;52.10
66936;DHT22;53847;51.984;5.896;2022-08-16T09:01:35;26.60;52.10
66936;DHT22;53847;51.984;5.896;2022-08-16T09:04:03;26.80;52.50
66936;DHT22;53847;51.984;5.896;2022-08-16T09:06:30;26.50;52.50
66936;DHT22;53847;51.984;5.896;2022-08-16T09:08:57;26.90;52.80
66936;DHT22;53847;51.984;5.896;2022-08-16T09:11:24;26.80;52.90
66936;DHT22;53847;51.984;5.896;2022-08-16T09:13:50;27.10;53.10
66936;DHT22;53847;51.984;5.896;2022-08-16T09:16:18;26.80;53.30
66936;DHT22;53847;51.984;5.896;2022-08-16T09:18:45;27.10;53.60
66936;DHT22;53847;51.984;5.896;2022-08-16T09:21:12;26.70;53.30
66936;DHT22;53847;51.984;5.896;2022-08-16T09:23:39;26.80;53.10
66936;DHT22;53847;51.984;5.896;2022-08-16T09:26:09;26.90;53.10
66936;DHT22;53847;51.984;5.896;2022-08-16T09:28:37;26.90;53.10
66936;DHT22;53847;51.984;5.896;2022-08-16T09:31:14;27.00;53.10
66936;DHT22;53847;51.984;5.896;2022-08-16T09:33:41;27.00;52.90
66936;DHT22;53847;51.984;5.896;2022-08-16T09:36:07;27.10;53.00
66936;DHT22;53847;51.984;5.896;2022-08-16T09:38:34;26.90;52.60
66936;DHT22;53847;51.984;5.896;2022-08-16T09:41:02;27.10;52.70
66936;DHT22;53847;51.984;5.896;2022-08-16T09:43:29;27.10;52.50
66936;DHT22;53847;51.984;5.896;2022-08-16T09:45:55;27.30;52.60
66936;DHT22;53847;51.984;5.896;2022-08-16T09:48:21;27.30;52.60
66936;DHT22;53847;51.984;5.896;2022-08-16T09:50:47;27.50;52.60
66936;DHT22;53847;51.984;5.896;2022-08-16T09:53:16;27.40;52.50
66936;DHT22;53847;51.984;5.896;2022-08-16T09:55:45;27.40;52.40
66936;DHT22;53847;51.984;5.896;2022-08-16T09:58:12;27.90;52.20
66936;DHT22;53847;51.984;5.896;2022-08-16T10:00:38;27.60;52.00
66936;DHT22;53847;51.984;5.896;2022-08-16T10:03:05;27.60;51.90
66936;DHT22;53847;51.984;5.896;2022-08-16T10:05:32;27.60;52.00
66936;DHT22;53847;51.984;5.896;2022-08-16T10:07:58;27.70;52.00
66936;DHT22;53847;51.984;5.896;2022-08-16T10:10:24;27.70;51.80
66936;DHT22;53847;51.984;5.896;2022-08-16T10:12:51;27.70;51.70
66936;DHT22;53847;51.984;5.896;2022-08-16T10:15:19;27.80;51.60
66936;DHT22;53847;51.984;5.896;2022-08-16T10:17:50;27.90;51.70
66936;DHT22;53847;51.984;5.896;2022-08-16T10:20:17;27.60;51.30
66936;DHT22;53847;51.984;5.896;2022-08-16T10:22:44;28.00;51.20
66936;DHT22;53847;51.984;5.896;2022-08-16T10:25:10;28.10;51.10
66936;DHT22;53847;51.984;5.896;2022-08-16T10:27:36;28.10;50.60
66936;DHT22;53847;51.984;5.896;2022-08-16T10:30:05;28.10;50.60
66936;DHT22;53847;51.984;5.896;2022-08-16T10:32:32;28.40;50.60
66936;DHT22;53847;51.984;5.896;2022-08-16T10:34:59;28.20;50.30
66936;DHT22;53847;51.984;5.896;2022-08-16T10:37:25;28.20;50.40
66936;DHT22;53847;51.984;5.896;2022-08-16T10:39:52;28.30;50.50
66936;DHT22;53847;51.984;5.896;2022-08-16T10:42:18;28.40;50.30
66936;DHT22;53847;51.984;5.896;2022-08-16T10:44:44;28.50;50.40
66936;DHT22;53847;51.984;5.896;2022-08-16T10:47:10;28.50;50.20
66936;DHT22;53847;51.984;5.896;2022-08-16T10:49:36;28.90;49.90
66936;DHT22;53847;51.984;5.896;2022-08-16T10:52:03;28.70;49.60
66936;DHT22;53847;51.984;5.896;2022-08-16T10:54:30;28.70;49.70
66936;DHT22;53847;51.984;5.896;2022-08-16T10:57:00;28.60;49.00
66936;DHT22;53847;51.984;5.896;2022-08-16T10:59:28;28.60;48.60
66936;DHT22;53847;51.984;5.896;2022-08-16T11:01:55;28.60;48.60
66936;DHT22;53847;51.984;5.896;2022-08-16T11:04:21;28.70;48.80
66936;DHT22;53847;51.984;5.896;2022-08-16T11:06:47;28.50;48.50
66936;DHT22;53847;51.984;5.896;2022-08-16T11:09:13;29.10;48.40
66936;DHT22;53847;51.984;5.896;2022-08-16T11:11:39;28.90;48.20
66936;DHT22;53847;51.984;5.896;2022-08-16T11:14:05;28.90;48.20
66936;DHT22;53847;51.984;5.896;2022-08-16T11:16:31;28.90;48.30
66936;DHT22;53847;51.984;5.896;2022-08-16T11:18:58;29.30;48.70
66936;DHT22;53847;51.984;5.896;2022-08-16T11:21:24;29.10;48.40
66936;DHT22;53847;51.984;5.896;2022-08-16T11:23:51;29.20;47.90
66936;DHT22;53847;51.984;5.896;2022-08-16T11:26:18;28.90;47.00
66936;DHT22;53847;51.984;5.896;2022-08-16T11:28:45;29.20;46.70
66936;DHT22;53847;51.984;5.896;2022-08-16T11:31:11;29.20;46.60
66936;DHT22;53847;51.984;5.896;2022-08-16T11:33:37;28.90;46.40
66936;DHT22;53847;51.984;5.896;2022-08-16T11:36:03;29.20;46.90
66936;DHT22;53847;51.984;5.896;2022-08-16T11:38:29;29.10;47.10
66936;DHT22;53847;51.984;5.896;2022-08-16T11:40:57;29.00;47.10
66936;DHT22;53847;51.984;5.896;2022-08-16T11:43:27;29.50;47.30
66936;DHT22;53847;51.984;5.896;2022-08-16T11:45:56;29.50;47.20
66936;DHT22;53847;51.984;5.896;2022-08-16T11:48:27;29.50;47.50
66936;DHT22;53847;51.984;5.896;2022-08-16T11:50:54;29.60;47.20
66936;DHT22;53847;51.984;5.896;2022-08-16T11:53:21;30.00;47.00
66936;DHT22;53847;51.984;5.896;2022-08-16T11:55:47;29.80;46.80
66936;DHT22;53847;51.984;5.896;2022-08-16T11:58:13;30.00;46.90
66936;DHT22;53847;51.984;5.896;2022-08-16T12:00:42;29.80;46.60
66936;DHT22;53847;51.984;5.896;2022-08-16T12:03:09;29.90;46.50
66936;DHT22;53847;51.984;5.896;2022-08-16T12:05:36;30.10;46.60
66936;DHT22;53847;51.984;5.896;2022-08-16T12:08:04;29.70;46.20
66936;DHT22;53847;51.984;5.896;2022-08-16T12:10:30;29.90;46.60
66936;DHT22;53847;51.984;5.896;2022-08-16T12:12:56;29.50;46.20
66936;DHT22;53847;51.984;5.896;2022-08-16T12:15:22;29.70;46.00
66936;DHT22;53847;51.984;5.896;2022-08-16T12:17:48;29.50;45.80
66936;DHT22;53847;51.984;5.896;2022-08-16T12:20:18;29.50;46.20
66936;DHT22;53847;51.984;5.896;2022-08-16T12:22:45;29.40;45.80
66936;DHT22;53847;51.984;5.896;2022-08-16T12:25:14;29.50;45.60
66936;DHT22;53847;51.984;5.896;2022-08-16T12:27:42;29.80;46.00
66936;DHT22;53847;51.984;5.896;2022-08-16T12:30:11;29.80;45.90
66936;DHT22;53847;51.984;5.896;2022-08-16T12:32:38;29.70;46.10
66936;DHT22;53847;51.984;5.896;2022-08-16T12:35:06;29.70;46.50
66936;DHT22;53847;51.984;5.896;2022-08-16T12:37:33;29.70;46.80
66936;DHT22;53847;51.984;5.896;2022-08-16T12:39:59;29.70;47.20
66936;DHT22;53847;51.984;5.896;2022-08-16T12:42:26;29.80;47.20
66936;DHT22;53847;51.984;5.896;2022-08-16T12:44:52;29.70;47.10
66936;DHT22;53847;51.984;5.896;2022-08-16T12:47:18;29.40;46.80
66936;DHT22;53847;51.984;5.896;2022-08-16T12:49:44;29.70;47.10
66936;DHT22;53847;51.984;5.896;2022-08-16T12:52:11;29.70;47.10
66936;DHT22;53847;51.984;5.896;2022-08-16T12:54:37;29.50;47.00
66936;DHT22;53847;51.984;5.896;2022-08-16T12:57:07;29.70;47.00
66936;DHT22;53847;51.984;5.896;2022-08-16T12:59:34;29.70;46.80
66936;DHT22;53847;51.984;5.896;2022-08-16T13:02:02;29.70;46.90
66936;DHT22;53847;51.984;5.896;2022-08-16T13:04:29;29.90;47.00
66936;DHT22;53847;51.984;5.896;2022-08-16T13:06:56;29.60;47.00
66936;DHT22;53847;51.984;5.896;2022-08-16T13:09:22;30.00;47.40
66936;DHT22;53847;51.984;5.896;2022-08-16T13:11:58;29.90;47.30
66936;DHT22;53847;51.984;5.896;2022-08-16T13:14:31;30.20;47.20
66936;DHT22;53847;51.984;5.896;2022-08-16T13:16:59;30.30;47.10
66936;DHT22;53847;51.984;5.896;2022-08-16T13:19:26;30.40;46.70
66936;DHT22;53847;51.984;5.896;2022-08-16T13:21:52;30.80;46.50
66936;DHT22;53847;51.984;5.896;2022-08-16T13:24:18;30.60;46.20
66936;DHT22;53847;51.984;5.896;2022-08-16T13:26:44;30.20;45.60
66936;DHT22;53847;51.984;5.896;2022-08-16T13:29:10;30.20;45.30
66936;DHT22;53847;51.984;5.896;2022-08-16T13:31:36;30.50;45.40
66936;DHT22;53847;51.984;5.896;2022-08-16T13:34:03;30.50;45.70
66936;DHT22;53847;51.984;5.896;2022-08-16T13:36:29;30.50;45.60
66936;DHT22;53847;51.984;5.896;2022-08-16T13:38:55;30.50;45.50
66936;DHT22;53847;51.984;5.896;2022-08-16T13:41:21;30.50;45.50
66936;DHT22;53847;51.984;5.896;2022-08-16T13:43:47;30.50;45.10
66936;DHT22;53847;51.984;5.896;2022-08-16T13:46:13;30.30;44.80
66936;DHT22;53847;51.984;5.896;2022-08-16T13:48:39;30.50;45.10
66936;DHT22;53847;51.984;5.896;2022-08-16T13:51:06;30.70;45.10
66936;DHT22;53847;51.984;5.896;2022-08-16T13:53:32;30.20;44.80
66936;DHT22;53847;51.984;5.896;2022-08-16T13:55:58;30.80;45.10
66936;DHT22;53847;51.984;5.896;2022-08-16T13:58:25;30.80;45.00
66936;DHT22;53847;51.984;5.896;2022-08-16T14:00:51;30.50;45.00
66936;DHT22;53847;51.984;5.896;2022-08-16T14:03:18;30.40;45.00
66936;DHT22;53847;51.984;5.896;2022-08-16T14:05:44;30.40;45.30
66936;DHT22;53847;51.984;5.896;2022-08-16T14:08:10;30.20;45.40
66936;DHT22;53847;51.984;5.896;2022-08-16T14:10:36;30.40;45.60
66936;DHT22;53847;51.984;5.896;2022-08-16T14:13:03;30.00;45.30
66936;DHT22;53847;51.984;5.896;2022-08-16T14:15:29;30.00;45.00
66936;DHT22;53847;51.984;5.896;2022-08-16T14:17:55;30.30;45.10
66936;DHT22;53847;51.984;5.896;2022-08-16T14:20:21;30.10;44.70
66936;DHT22;53847;51.984;5.896;2022-08-16T14:22:47;30.10;44.30
66936;DHT22;53847;51.984;5.896;2022-08-16T14:25:17;30.40;44.30
66936;DHT22;53847;51.984;5.896;2022-08-16T14:27:44;30.40;44.10
66936;DHT22;53847;51.984;5.896;2022-08-16T14:30:12;30.40;43.70
66936;DHT22;53847;51.984;5.896;2022-08-16T14:32:39;30.20;43.80
66936;DHT22;53847;51.984;5.896;2022-08-16T14:35:09;30.40;43.70
66936;DHT22;53847;51.984;5.896;2022-08-16T14:37:36;30.50;43.90
66936;DHT22;53847;51.984;5.896;2022-08-16T14:40:05;31.00;44.20
66936;DHT22;53847;51.984;5.896;2022-08-16T14:42:32;30.50;44.10
66936;DHT22;53847;51.984;5.896;2022-08-16T14:44:58;30.50;44.40
66936;DHT22;53847;51.984;5.896;2022-08-16T14:47:24;30.50;44.60
66936;DHT22;53847;51.984;5.896;2022-08-16T14:49:50;30.30;44.60
66936;DHT22;53847;51.984;5.896;2022-08-16T14:52:18;30.40;44.90
66936;DHT22;53847;51.984;5.896;2022-08-16T14:54:46;30.40;45.00
66936;DHT22;53847;51.984;5.896;2022-08-16T14:57:13;30.40;45.10
66936;DHT22;53847;51.984;5.896;2022-08-16T14:59:40;30.40;45.10
66936;DHT22;53847;51.984;5.896;2022-08-16T15:02:15;30.20;44.80
66936;DHT22;53847;51.984;5.896;2022-08-16T15:04:42;30.70;45.20
66936;DHT22;53847;51.984;5.896;2022-08-16T15:07:09;30.40;45.10
66936;DHT22;53847;51.984;5.896;2022-08-16T15:09:36;30.30;44.30
66936;DHT22;53847;51.984;5.896;2022-08-16T15:12:11;30.20;43.30
66936;DHT22;53847;51.984;5.896;2022-08-16T15:14:39;30.40;42.90
66936;DHT22;53847;51.984;5.896;2022-08-16T15:17:06;30.00;42.60
66936;DHT22;53847;51.984;5.896;2022-08-16T15:19:33;30.50;43.00
66936;DHT22;53847;51.984;5.896;2022-08-16T15:21:59;30.20;42.50
66936;DHT22;53847;51.984;5.896;2022-08-16T15:24:26;30.40;42.80
66936;DHT22;53847;51.984;5.896;2022-08-16T15:26:53;30.70;43.20
66936;DHT22;53847;51.984;5.896;2022-08-16T15:29:19;30.40;43.20
66936;DHT22;53847;51.984;5.896;2022-08-16T15:31:46;30.40;43.50
66936;DHT22;53847;51.984;5.896;2022-08-16T15:34:12;30.50;43.70
66936;DHT22;53847;51.984;5.896;2022-08-16T15:36:39;30.80;44.10
66936;DHT22;53847;51.984;5.896;2022-08-16T15:39:08;30.20;43.60
66936;DHT22;53847;51.984;5.896;2022-08-16T15:44:18;30.70;43.40
66936;DHT22;53847;51.984;5.896;2022-08-16T15:46:44;30.40;43.20